Time;durP1;ratioP1;P1;durP2;ratioP2;P2;SDS_P1;SDS_P2;PMS_P1;PMS_P2;Temp;Humidity;BMP_temperature;BMP_pressure;BME280_temperature;BME280_humidity;BME280_pressure;Samples;Min_cycle;Max_cycle;Signal;HPM_P1;HPM_P2
2023/09/22 00:01:29;;;;;;;2.67;1.20;;;21.40;61.70;;;;;;7395776;19;19914;-71
2023/09/22 00:03:56;;;;;;;2.65;0.98;;;21.40;62.00;;;;;;7398140;19;19914;-72
2023/09/22 00:06:22;;;;;;;2.00;0.90;;;21.50;62.10;;;;;;7397145;19;19937;-72
2023/09/22 00:08:48;;;;;;;1.92;0.98;;;21.50;62.00;;;;;;7396005;19;20544;-71
2023/09/22 00:11:14;;;;;;;2.38;1.00;;;21.50;61.40;;;;;;7394473;19;19978;-71
2023/09/22 00:13:39;;;;;;;3.08;1.08;;;21.50;61.80;;;;;;7393959;19;19926;-72
2023/09/22 00:16:06;;;;;;;4.20;1.42;;;21.40;61.50;;;;;;7395025;19;19918;-71
2023/09/22 00:18:31;;;;;;;;;;;21.40;61.50;;;;;;7396448;19;19927;-72
2023/09/22 00:20:57;;;;;;;3.55;1.02;;;21.40;61.60;;;;;;7397685;19;19922;-72
2023/09/22 00:23:23;;;;;;;2.13;0.90;;;21.40;61.80;;;;;;7393993;19;19931;-71
2023/09/22 00:25:49;;;;;;;2.60;1.20;;;21.40;61.80;;;;;;7397738;19;19950;-71
2023/09/22 00:28:14;;;;;;;2.38;1.10;;;21.40;62.10;;;;;;7395071;19;20346;-72
2023/09/22 00:30:40;;;;;;;2.22;1.10;;;21.40;62.20;;;;;;7394562;19;19918;-71
2023/09/22 00:33:06;;;;;;;3.78;1.00;;;21.40;62.00;;;;;;7394560;19;19946;-70
2023/09/22 00:35:32;;;;;;;3.38;1.20;;;21.40;62.20;;;;;;7398163;19;19918;-72
2023/09/22 00:37:58;;;;;;;2.55;1.40;;;21.40;62.20;;;;;;7393303;19;19946;-71
2023/09/22 00:40:23;;;;;;;3.35;1.35;;;21.40;62.50;;;;;;7393697;19;19930;-71
2023/09/22 00:43:09;;;;;;;2.70;1.20;;;21.40;62.60;;;;;;7395469;19;19979;-72
2023/09/22 00:45:45;;;;;;;2.58;1.10;;;21.40;62.50;;;;;;7396032;19;20560;-72
2023/09/22 00:48:19;;;;;;;3.03;1.13;;;21.50;62.50;;;;;;7394804;19;19919;-72
2023/09/22 00:50:45;;;;;;;2.60;0.80;;;21.50;62.40;;;;;;7393718;19;20301;-72
2023/09/22 00:53:11;;;;;;;3.13;1.08;;;21.40;63.10;;;;;;7391540;19;19936;-70
2023/09/22 00:55:37;;;;;;;3.55;1.10;;;21.50;62.60;;;;;;7397216;19;19921;-71
2023/09/22 00:58:03;;;;;;;3.75;1.42;;;21.50;62.50;;;;;;7391828;19;19983;-72
2023/09/22 01:00:30;;;;;;;;;;;21.40;62.70;;;;;;7400928;19;21519;-72
2023/09/22 01:02:59;;;;;;;2.88;1.13;;;21.50;62.50;;;;;;7393207;19;19915;-72
2023/09/22 01:05:25;;;;;;;2.45;1.02;;;21.40;62.50;;;;;;7392737;19;20504;-72
2023/09/22 01:07:51;;;;;;;1.77;0.75;;;21.40;62.40;;;;;;7394410;19;19918;-72
2023/09/22 01:10:17;;;;;;;2.60;1.25;;;21.40;62.30;;;;;;7392649;19;19925;-72
2023/09/22 01:12:43;;;;;;;4.13;1.17;;;21.30;62.90;;;;;;7395592;19;19915;-72
2023/09/22 01:15:11;;;;;;;5.90;1.23;;;21.30;63.20;;;;;;7393436;19;20489;-72
2023/09/22 01:17:38;;;;;;;1.90;1.10;;;21.20;63.70;;;;;;7394928;19;19926;-72
2023/09/22 01:20:07;;;;;;;2.28;1.17;;;21.30;63.50;;;;;;7392396;19;19978;-72
2023/09/22 01:22:37;;;;;;;3.15;1.20;;;21.20;63.70;;;;;;7394972;19;19907;-74
2023/09/22 01:25:03;;;;;;;3.35;1.25;;;21.20;64.00;;;;;;7379178;19;19919;-72
2023/09/22 01:27:30;;;;;;;2.90;1.30;;;21.20;64.00;;;;;;7394984;19;19918;-72
2023/09/22 01:29:56;;;;;;;2.22;1.08;;;21.10;64.20;;;;;;7391629;19;20490;-71
2023/09/22 01:32:22;;;;;;;3.38;1.25;;;21.10;64.10;;;;;;7395453;19;19911;-72
2023/09/22 01:34:48;;;;;;;2.38;0.70;;;21.20;64.30;;;;;;7392851;19;19918;-71
2023/09/22 01:37:14;;;;;;;3.20;1.50;;;21.10;64.90;;;;;;7393409;19;19994;-71
2023/09/22 01:39:40;;;;;;;2.60;1.05;;;21.00;65.90;;;;;;7395027;19;19944;-71
2023/09/22 01:42:08;;;;;;;2.85;1.00;;;21.00;66.60;;;;;;7392309;19;19937;-71
2023/09/22 01:44:34;;;;;;;2.60;1.10;;;20.90;67.00;;;;;;7392746;19;19911;-71
2023/09/22 01:46:59;;;;;;;3.20;1.30;;;20.90;67.90;;;;;;7393061;19;19914;-72
2023/09/22 01:49:25;;;;;;;3.30;1.45;;;20.80;68.20;;;;;;7391753;19;19915;-72
2023/09/22 01:51:51;;;;;;;2.58;0.93;;;20.70;68.90;;;;;;7395361;19;19910;-71
2023/09/22 01:54:17;;;;;;;3.15;1.10;;;20.70;69.20;;;;;;7391297;19;19956;-71
2023/09/22 01:56:43;;;;;;;2.35;1.25;;;20.80;69.30;;;;;;7397659;19;19911;-71
2023/09/22 01:59:08;;;;;;;3.65;1.50;;;20.80;69.40;;;;;;7390217;19;19929;-71
2023/09/22 02:01:34;;;;;;;2.38;0.63;;;20.70;70.00;;;;;;7392606;19;20446;-72
2023/09/22 02:04:00;;;;;;;3.33;1.10;;;20.70;70.70;;;;;;7392846;19;19906;-71
2023/09/22 02:06:25;;;;;;;2.33;1.20;;;20.70;71.30;;;;;;7392432;19;19918;-72
2023/09/22 02:08:52;;;;;;;3.83;1.15;;;20.60;72.10;;;;;;7397494;19;20326;-72
2023/09/22 02:11:17;;;;;;;2.83;1.25;;;20.50;73.40;;;;;;7394751;19;19922;-72
2023/09/22 02:13:43;;;;;;;5.13;1.65;;;20.50;74.00;;;;;;7399462;19;19922;-70
2023/09/22 02:16:09;;;;;;;3.38;1.00;;;20.50;74.80;;;;;;7396500;19;19931;-71
2023/09/22 02:18:35;;;;;;;3.90;1.50;;;20.40;75.30;;;;;;7400303;19;19918;-72
2023/09/22 02:21:01;;;;;;;2.90;1.30;;;20.40;76.20;;;;;;7395416;19;19932;-71
2023/09/22 02:23:27;;;;;;;3.83;1.40;;;20.40;76.70;;;;;;7398438;19;19911;-72
2023/09/22 02:25:53;;;;;;;2.33;1.35;;;20.40;76.80;;;;;;7398219;19;19915;-72
2023/09/22 02:28:19;;;;;;;2.40;1.05;;;20.40;76.60;;;;;;7395996;19;19915;-71
2023/09/22 02:30:45;;;;;;;;;;;20.40;76.20;;;;;;7401613;19;19951;-71
2023/09/22 02:33:11;;;;;;;3.05;1.38;;;20.40;76.10;;;;;;7398224;19;19911;-70
2023/09/22 02:35:41;;;;;;;2.60;1.20;;;20.40;76.30;;;;;;7399750;19;20473;-71
2023/09/22 02:38:07;;;;;;;3.45;0.60;;;20.40;76.80;;;;;;7397972;19;19914;-71
2023/09/22 02:40:33;;;;;;;4.22;1.40;;;20.40;77.00;;;;;;7400432;19;19926;-71
2023/09/22 02:42:59;;;;;;;2.80;1.40;;;20.30;77.30;;;;;;7397922;19;19918;-71
2023/09/22 02:45:24;;;;;;;2.55;1.20;;;20.30;77.60;;;;;;7396316;19;19936;-70
2023/09/22 02:47:50;;;;;;;2.15;0.80;;;20.30;78.00;;;;;;7399958;19;20320;-71
2023/09/22 02:50:18;;;;;;;2.40;1.40;;;20.30;78.40;;;;;;7397351;19;19948;-71
2023/09/22 02:52:44;;;;;;;3.55;1.00;;;20.30;78.70;;;;;;7398096;19;19919;-73
2023/09/22 02:55:11;;;;;;;2.20;1.05;;;20.30;79.00;;;;;;7396799;19;19914;-71
2023/09/22 02:57:37;;;;;;;3.88;1.20;;;20.20;79.10;;;;;;7400116;19;19922;-72
2023/09/22 03:00:20;;;;;;;4.22;1.30;;;20.20;79.30;;;;;;7395650;19;19910;-71
2023/09/22 03:02:52;;;;;;;3.15;1.20;;;20.20;79.20;;;;;;7397771;19;19949;-72
2023/09/22 03:05:18;;;;;;;2.90;1.30;;;20.20;79.50;;;;;;7398273;19;19954;-71
2023/09/22 03:07:44;;;;;;;2.60;1.20;;;20.20;79.80;;;;;;7398256;19;19911;-71
2023/09/22 03:10:13;;;;;;;4.20;1.60;;;20.20;79.70;;;;;;7394653;19;19939;-72
2023/09/22 03:12:40;;;;;;;2.17;1.30;;;20.20;79.80;;;;;;7399821;19;19942;-72
2023/09/22 03:15:09;;;;;;;2.70;0.70;;;20.20;79.60;;;;;;7395678;19;20350;-71
2023/09/22 03:17:36;;;;;;;2.97;1.52;;;20.10;79.10;;;;;;7397964;19;19918;-71
2023/09/22 03:20:06;;;;;;;2.88;1.65;;;20.20;78.70;;;;;;7395789;19;19918;-71
2023/09/22 03:22:32;;;;;;;2.28;1.08;;;20.20;78.10;;;;;;7397249;19;20255;-71
2023/09/22 03:24:58;;;;;;;2.53;1.65;;;20.20;78.40;;;;;;7400597;19;20326;-72
2023/09/22 03:27:24;;;;;;;2.88;1.30;;;20.20;78.60;;;;;;7396624;19;19918;-71
2023/09/22 03:29:50;;;;;;;2.15;1.00;;;20.10;79.00;;;;;;7397118;19;19907;-71
2023/09/22 03:32:18;;;;;;;2.05;0.95;;;20.10;79.20;;;;;;7398256;19;21626;-71
2023/09/22 03:34:47;;;;;;;2.92;1.13;;;20.00;79.40;;;;;;7396395;19;21972;-71
2023/09/22 03:37:12;;;;;;;2.80;1.50;;;20.00;79.60;;;;;;7395968;19;19918;-72
2023/09/22 03:39:38;;;;;;;3.35;1.10;;;20.00;79.90;;;;;;7394464;19;19919;-71
2023/09/22 03:42:06;;;;;;;2.15;0.73;;;19.90;80.40;;;;;;7396151;19;19998;-72
2023/09/22 03:44:33;;;;;;;2.90;1.40;;;19.90;80.50;;;;;;7398298;19;19922;-71
2023/09/22 03:46:59;;;;;;;3.78;1.92;;;19.90;80.90;;;;;;7397541;19;19954;-71
2023/09/22 03:49:26;;;;;;;3.88;1.30;;;19.90;81.00;;;;;;7396451;19;20588;-72
2023/09/22 03:51:53;;;;;;;4.10;1.48;;;19.90;81.30;;;;;;7397807;19;19943;-71
2023/09/22 03:54:18;;;;;;;4.35;1.80;;;19.80;81.70;;;;;;7397307;19;19922;-72
2023/09/22 03:56:45;;;;;;;2.88;1.48;;;19.80;82.20;;;;;;7399460;19;19918;-71
2023/09/22 03:59:11;;;;;;;3.72;1.83;;;19.70;82.80;;;;;;7395383;19;19921;-71
2023/09/22 04:01:38;;;;;;;2.70;1.25;;;19.70;83.10;;;;;;7398611;19;19935;-70
2023/09/22 04:04:04;;;;;;;3.83;1.45;;;19.60;83.30;;;;;;7396423;19;19911;-72
2023/09/22 04:06:31;;;;;;;2.50;1.30;;;19.60;83.70;;;;;;7395808;19;19946;-72
2023/09/22 04:08:57;;;;;;;4.00;1.20;;;19.60;83.80;;;;;;7397714;19;19933;-71
2023/09/22 04:11:23;;;;;;;3.53;1.58;;;19.50;84.00;;;;;;7394743;19;19915;-71
2023/09/22 04:13:50;;;;;;;2.67;1.20;;;19.50;84.10;;;;;;7397447;19;20706;-71
2023/09/22 04:16:16;;;;;;;2.95;1.20;;;19.50;83.80;;;;;;7395630;19;19930;-71
2023/09/22 04:18:41;;;;;;;1.98;0.98;;;19.50;83.70;;;;;;7396679;19;19919;-71
2023/09/22 04:21:09;;;;;;;3.00;1.30;;;19.50;83.00;;;;;;7395184;19;19910;-71
2023/09/22 04:23:35;;;;;;;2.22;1.20;;;19.50;82.50;;;;;;7396095;19;19917;-72
2023/09/22 04:26:09;;;;;;;4.30;1.48;;;19.60;81.90;;;;;;7397414;19;19914;-72
2023/09/22 04:28:37;;;;;;;2.90;1.20;;;19.50;81.90;;;;;;7395447;19;19925;-71
2023/09/22 04:31:03;;;;;;;2.90;1.38;;;19.50;81.80;;;;;;7395846;19;19926;-71
2023/09/22 04:33:29;;;;;;;2.95;1.25;;;19.50;81.20;;;;;;7395529;19;19918;-72
2023/09/22 04:35:55;;;;;;;3.47;1.50;;;19.40;82.00;;;;;;7397306;19;19910;-72
2023/09/22 04:38:21;;;;;;;4.20;1.33;;;19.40;82.50;;;;;;7394374;19;19919;-72
2023/09/22 04:40:47;;;;;;;6.13;1.63;;;19.40;81.90;;;;;;7397416;19;19926;-71
2023/09/22 04:43:13;;;;;;;2.67;1.23;;;19.40;82.90;;;;;;7396413;19;19928;-70
2023/09/22 04:45:45;;;;;;;3.20;1.58;;;19.30;83.40;;;;;;7396742;19;19915;-72
2023/09/22 04:48:13;;;;;;;4.22;1.70;;;19.30;84.10;;;;;;7393795;19;19914;-72
2023/09/22 04:50:39;;;;;;;3.33;1.55;;;19.20;84.40;;;;;;7397706;19;19935;-71
2023/09/22 04:53:05;;;;;;;4.13;1.92;;;19.20;83.40;;;;;;7394886;19;19907;-70
2023/09/22 04:55:35;;;;;;;3.88;1.45;;;19.20;83.00;;;;;;7396034;19;19927;-70
2023/09/22 04:58:02;;;;;;;4.78;1.83;;;19.20;82.70;;;;;;7397493;19;19987;-71
2023/09/22 05:00:28;;;;;;;4.22;1.58;;;19.20;82.40;;;;;;7397586;19;19923;-71
2023/09/22 05:02:55;;;;;;;4.97;1.63;;;19.10;82.50;;;;;;7396657;19;20268;-71
2023/09/22 05:05:22;;;;;;;5.63;1.50;;;19.10;82.50;;;;;;7394227;19;19914;-72
2023/09/22 05:07:48;;;;;;;3.10;1.25;;;19.10;82.90;;;;;;7396956;19;20353;-70
2023/09/22 05:10:14;;;;;;;2.85;1.20;;;19.00;83.30;;;;;;7393748;19;20287;-70
2023/09/22 05:12:40;;;;;;;3.67;1.60;;;19.00;84.00;;;;;;7398000;19;19994;-71
2023/09/22 05:15:06;;;;;;;3.30;1.23;;;19.00;84.30;;;;;;7393769;19;19921;-71
2023/09/22 05:17:34;;;;;;;3.88;1.70;;;18.90;84.60;;;;;;7395112;19;20383;-71
2023/09/22 05:20:00;;;;;;;3.35;1.20;;;18.90;84.90;;;;;;7396410;19;19925;-70
2023/09/22 05:22:26;;;;;;;3.33;1.48;;;18.80;85.20;;;;;;7395434;19;19907;-70
2023/09/22 05:24:52;;;;;;;4.22;1.70;;;18.80;85.90;;;;;;7396963;19;19982;-70
2023/09/22 05:27:17;;;;;;;3.45;1.50;;;18.80;85.30;;;;;;7391347;19;19929;-71
2023/09/22 05:29:43;;;;;;;4.38;1.52;;;18.80;85.40;;;;;;7395823;19;20417;-71
2023/09/22 05:32:12;;;;;;;2.80;0.90;;;18.80;85.10;;;;;;7388459;19;19923;-71
2023/09/22 05:34:39;;;;;;;4.15;1.55;;;18.80;84.90;;;;;;7393676;19;19930;-70
2023/09/22 05:37:05;;;;;;;4.30;1.02;;;18.80;84.50;;;;;;7393263;19;20319;-70
2023/09/22 05:39:31;;;;;;;2.58;1.27;;;18.80;85.00;;;;;;7396276;19;19918;-70
2023/09/22 05:41:58;;;;;;;3.78;1.52;;;18.80;85.20;;;;;;7394407;19;19918;-71
2023/09/22 05:44:27;;;;;;;5.07;1.40;;;18.80;85.80;;;;;;7399606;19;19926;-71
2023/09/22 05:46:54;;;;;;;3.15;1.38;;;18.80;85.50;;;;;;7403875;19;20264;-70
2023/09/22 05:49:20;;;;;;;5.03;1.80;;;18.70;85.80;;;;;;7397986;19;19926;-72
2023/09/22 05:51:46;;;;;;;4.93;1.55;;;18.60;86.20;;;;;;7398242;19;19919;-71
2023/09/22 05:54:12;;;;;;;5.22;2.10;;;18.60;86.50;;;;;;7402471;19;19910;-70
2023/09/22 05:56:40;;;;;;;3.53;1.58;;;18.60;86.20;;;;;;7405098;19;19922;-71
2023/09/22 05:59:06;;;;;;;3.90;1.83;;;18.60;85.10;;;;;;7399172;19;19914;-70
2023/09/22 06:01:35;;;;;;;2.75;1.58;;;18.60;84.70;;;;;;7397838;19;20345;-71
2023/09/22 06:04:04;;;;;;;3.42;1.40;;;18.70;83.70;;;;;;7400704;19;20259;-71
2023/09/22 06:06:32;;;;;;;3.40;1.10;;;18.60;83.20;;;;;;7399849;19;19942;-71
2023/09/22 06:08:58;;;;;;;3.42;1.98;;;18.60;83.80;;;;;;7399081;19;19914;-71
2023/09/22 06:11:24;;;;;;;;;;;18.60;84.70;;;;;;7402499;19;19922;-71
2023/09/22 06:13:50;;;;;;;3.78;1.20;;;18.60;84.30;;;;;;7400171;19;19911;-71
2023/09/22 06:16:16;;;;;;;4.70;1.80;;;18.60;84.50;;;;;;7401096;19;20041;-71
2023/09/22 06:18:42;;;;;;;4.28;1.20;;;18.60;84.00;;;;;;7399443;19;19915;-70
2023/09/22 06:21:10;;;;;;;4.05;1.67;;;18.60;84.30;;;;;;7397150;19;19917;-71
2023/09/22 06:23:36;;;;;;;4.18;1.95;;;18.60;84.20;;;;;;7401246;19;19910;-71
2023/09/22 06:26:10;;;;;;;3.95;1.98;;;18.60;84.40;;;;;;7398273;19;19915;-70
2023/09/22 06:28:38;;;;;;;4.35;1.52;;;18.60;84.30;;;;;;7402226;19;19914;-71
2023/09/22 06:31:05;;;;;;;4.90;2.33;;;18.60;84.40;;;;;;7393649;19;19919;-71
2023/09/22 06:33:31;;;;;;;4.60;1.77;;;18.60;84.30;;;;;;7398018;19;19917;-70
2023/09/22 06:35:58;;;;;;;5.03;1.90;;;18.60;84.10;;;;;;7401961;19;19918;-71
2023/09/22 06:38:24;;;;;;;3.90;1.52;;;18.60;83.80;;;;;;7400173;19;20657;-71
2023/09/22 06:40:59;;;;;;;3.72;1.67;;;18.70;83.70;;;;;;7396336;19;19974;-71
2023/09/22 06:43:25;;;;;;;3.33;2.13;;;18.70;83.50;;;;;;7402274;19;19918;-72
2023/09/22 06:45:53;;;;;;;3.45;1.80;;;18.70;82.80;;;;;;7403531;19;19924;-70
2023/09/22 06:48:25;;;;;;;4.10;1.90;;;18.70;81.80;;;;;;7404978;19;19922;-71
2023/09/22 06:50:51;;;;;;;;;;;18.70;82.10;;;;;;7397891;19;19914;-71
2023/09/22 06:53:21;;;;;;;5.97;1.88;;;18.80;80.00;;;;;;7402108;19;20335;-71
2023/09/22 06:55:48;;;;;;;6.25;1.75;;;18.90;80.20;;;;;;7403349;19;19922;-70
2023/09/22 06:58:15;;;;;;;4.78;1.88;;;18.90;79.90;;;;;;7402745;19;19922;-71
2023/09/22 07:00:41;;;;;;;5.85;2.20;;;19.00;79.20;;;;;;7403221;19;20551;-71
2023/09/22 07:03:08;;;;;;;3.30;1.40;;;19.00;77.00;;;;;;7385789;19;19934;-71
2023/09/22 07:05:34;;;;;;;5.55;1.77;;;19.10;76.10;;;;;;7372580;19;19927;-70
2023/09/22 07:08:04;;;;;;;2.75;1.02;;;19.30;75.00;;;;;;7381232;19;20403;-70
2023/09/22 07:10:30;;;;;;;2.83;1.17;;;19.40;73.30;;;;;;7394079;19;20268;-72
2023/09/22 07:12:56;;;;;;;2.65;1.13;;;19.50;71.70;;;;;;7404194;19;19910;-70
2023/09/22 07:15:23;;;;;;;4.15;1.30;;;19.60;70.00;;;;;;7398325;19;19914;-72
2023/09/22 07:17:48;;;;;;;5.78;1.50;;;19.60;71.30;;;;;;7379614;19;19914;-70
2023/09/22 07:20:14;;;;;;;5.90;1.20;;;19.70;70.90;;;;;;7376022;19;19933;-71
2023/09/22 07:22:42;;;;;;;3.00;1.42;;;19.80;71.40;;;;;;7380949;19;20493;-73
2023/09/22 07:25:08;;;;;;;3.13;1.70;;;19.90;68.80;;;;;;7368806;19;19923;-71
2023/09/22 07:27:36;;;;;;;4.63;1.38;;;20.10;67.70;;;;;;7377022;19;19915;-71
2023/09/22 07:30:09;;;;;;;3.60;1.77;;;20.00;67.70;;;;;;7379463;19;19937;-71
2023/09/22 07:32:37;;;;;;;4.82;1.40;;;20.10;67.90;;;;;;7378015;19;20264;-70
2023/09/22 07:35:05;;;;;;;3.58;1.63;;;19.90;66.60;;;;;;7367006;19;19930;-70
2023/09/22 07:37:32;;;;;;;5.82;1.67;;;19.90;67.80;;;;;;7378943;19;19946;-70
2023/09/22 07:39:58;;;;;;;7.55;1.95;;;19.90;67.70;;;;;;7379302;19;20041;-72
2023/09/22 07:42:27;;;;;;;2.97;1.05;;;19.90;67.70;;;;;;7375101;19;19930;-71
2023/09/22 07:44:52;;;;;;;5.10;2.10;;;19.90;67.00;;;;;;7370122;19;20239;-71
2023/09/22 07:47:18;;;;;;;5.32;1.58;;;19.90;67.50;;;;;;7376619;19;19931;-71
2023/09/22 07:49:44;;;;;;;4.43;1.90;;;19.90;66.20;;;;;;7383786;19;19934;-70
2023/09/22 07:52:10;;;;;;;3.70;1.98;;;20.00;65.80;;;;;;7372892;19;19914;-71
2023/09/22 07:54:39;;;;;;;6.03;1.70;;;20.00;64.40;;;;;;7372101;19;19948;-70
2023/09/22 07:57:05;;;;;;;4.50;1.60;;;20.10;63.20;;;;;;7384129;19;19918;-70
2023/09/22 07:59:31;;;;;;;4.38;1.23;;;20.10;63.50;;;;;;7374244;19;20304;-70
2023/09/22 08:02:02;;;;;;;2.80;1.15;;;20.00;63.00;;;;;;7380851;19;19923;-72
2023/09/22 08:04:28;;;;;;;3.35;0.90;;;20.00;62.00;;;;;;7374982;19;25275;-71
2023/09/22 08:06:54;;;;;;;2.80;1.23;;;20.00;59.50;;;;;;7384581;19;19936;-71
2023/09/22 08:09:21;;;;;;;3.58;1.20;;;20.00;60.30;;;;;;7370150;19;22050;-71
2023/09/22 08:11:47;;;;;;;5.85;1.38;;;20.10;61.10;;;;;;7373863;19;19907;-71
2023/09/22 08:14:13;;;;;;;4.82;1.48;;;20.20;60.70;;;;;;7369278;19;19906;-71
2023/09/22 08:16:40;;;;;;;3.25;1.25;;;20.30;60.40;;;;;;7380208;19;19918;-71
2023/09/22 08:19:12;;;;;;;4.20;1.60;;;20.30;60.00;;;;;;7380224;19;20271;-71
2023/09/22 08:21:38;;;;;;;4.03;1.55;;;20.40;58.60;;;;;;7382478;19;19918;-71
2023/09/22 08:24:05;;;;;;;3.40;1.50;;;21.00;58.30;;;;;;7379398;19;20046;-73
2023/09/22 08:26:31;;;;;;;4.03;1.70;;;22.90;50.90;;;;;;7385271;19;19914;-73
2023/09/22 08:28:57;;;;;;;3.90;1.80;;;24.30;46.50;;;;;;7350150;19;19911;-70
2023/09/22 08:31:26;;;;;;;5.45;1.95;;;24.70;43.20;;;;;;7375221;19;19942;-72
2023/09/22 08:33:52;;;;;;;6.50;2.00;;;25.30;40.40;;;;;;7387356;19;19918;-71
2023/09/22 08:36:18;;;;;;;;;;;26.00;38.70;;;;;;7403494;19;20259;-71
2023/09/22 08:38:47;;;;;;;3.55;1.88;;;26.60;36.70;;;;;;7402916;19;19918;-71
2023/09/22 08:41:13;;;;;;;6.13;2.50;;;26.70;35.90;;;;;;7400511;19;19939;-72
2023/09/22 08:43:40;;;;;;;4.32;2.38;;;27.10;34.50;;;;;;7402327;19;20323;-71
2023/09/22 08:46:07;;;;;;;3.83;2.25;;;26.80;33.70;;;;;;7401511;19;19927;-73
2023/09/22 08:48:34;;;;;;;3.60;2.08;;;26.60;33.70;;;;;;7400483;19;19926;-71
2023/09/22 08:51:00;;;;;;;4.68;2.88;;;27.50;31.30;;;;;;7402484;19;19923;-72
2023/09/22 08:53:29;;;;;;;4.28;2.05;;;27.10;30.80;;;;;;7400710;19;19941;-74
2023/09/22 08:55:56;;;;;;;4.75;2.33;;;27.20;31.60;;;;;;7403939;19;19946;-72
2023/09/22 08:58:22;;;;;;;5.82;2.22;;;28.10;30.20;;;;;;7405942;19;20695;-73
2023/09/22 09:00:51;;;;;;;4.22;2.55;;;27.20;30.30;;;;;;7407019;19;19932;-73
2023/09/22 09:03:21;;;;;;;5.55;2.45;;;27.20;30.10;;;;;;7405519;19;19915;-73
2023/09/22 09:05:49;;;;;;;6.22;2.20;;;26.20;30.90;;;;;;7404868;19;19922;-73
2023/09/22 09:08:22;;;;;;;5.25;2.53;;;26.70;31.00;;;;;;7402044;19;19922;-73
2023/09/22 09:10:49;;;;;;;5.78;2.55;;;26.80;30.00;;;;;;7403867;19;19959;-72
2023/09/22 09:13:20;;;;;;;8.13;2.55;;;27.30;29.40;;;;;;7404135;19;19922;-73
2023/09/22 09:15:54;;;;;;;3.63;2.00;;;27.80;28.20;;;;;;7404509;19;19932;-73
2023/09/22 09:18:24;;;;;;;5.07;4.15;;;27.00;27.70;;;;;;7402230;19;19930;-73
2023/09/22 09:21:12;;;;;;;4.22;2.67;;;27.60;28.50;;;;;;7406715;19;19918;-73
2023/09/22 09:23:54;;;;;;;4.50;2.15;;;27.50;26.90;;;;;;7406709;19;20376;-73
2023/09/22 09:26:30;;;;;;;4.25;2.47;;;27.90;27.40;;;;;;7406771;19;19918;-73
2023/09/22 09:28:58;;;;;;;7.25;2.70;;;27.80;25.80;;;;;;7405904;19;19918;-73
2023/09/22 09:31:47;;;;;;;5.15;2.60;;;27.20;26.40;;;;;;7403971;19;19914;-73
2023/09/22 09:34:14;;;;;;;5.35;2.30;;;26.20;27.50;;;;;;7402628;19;20334;-73
2023/09/22 09:36:40;;;;;;;4.90;2.45;;;26.80;27.00;;;;;;7402635;19;19927;-73
2023/09/22 09:39:08;;;;;;;;;;;26.80;27.20;;;;;;7401758;19;19911;-73
2023/09/22 09:41:37;;;;;;;3.72;2.30;;;27.60;25.20;;;;;;7402425;19;19922;-74
2023/09/22 09:44:04;;;;;;;3.53;2.13;;;26.60;25.70;;;;;;7400737;19;19946;-73
2023/09/22 09:46:33;;;;;;;3.08;2.38;;;25.60;26.20;;;;;;7395768;19;19918;-73
2023/09/22 09:49:02;;;;;;;4.57;1.23;;;25.00;27.00;;;;;;7393911;19;19921;-73
2023/09/22 09:51:31;;;;;;;6.32;1.77;;;25.00;27.30;;;;;;7383759;19;19917;-73
2023/09/22 09:54:02;;;;;;;6.30;2.05;;;24.20;28.00;;;;;;7395974;19;19915;-73
2023/09/22 09:56:29;;;;;;;2.55;0.93;;;24.30;28.40;;;;;;7394659;19;19910;-73
2023/09/22 09:58:55;;;;;;;4.45;1.95;;;24.00;28.20;;;;;;7403247;19;20015;-72
2023/09/22 10:01:21;;;;;;;4.70;2.08;;;24.10;28.50;;;;;;7402989;19;19922;-72
2023/09/22 10:03:48;;;;;;;6.05;2.50;;;24.00;28.60;;;;;;7403037;19;19942;-72
2023/09/22 10:06:17;;;;;;;4.05;1.02;;;24.20;27.90;;;;;;7395292;19;19943;-73
2023/09/22 10:08:43;;;;;;;3.72;1.95;;;24.50;28.00;;;;;;7395883;19;20392;-73
2023/09/22 10:11:13;;;;;;;3.63;2.22;;;24.50;27.10;;;;;;7399372;19;19942;-72
2023/09/22 10:13:39;;;;;;;4.35;1.60;;;24.60;26.10;;;;;;7393249;19;20466;-72
2023/09/22 10:16:06;;;;;;;4.35;2.13;;;24.30;26.30;;;;;;7398312;19;19910;-72
2023/09/22 10:18:50;;;;;;;8.48;1.83;;;24.60;25.10;;;;;;7402275;19;20258;-74
2023/09/22 10:21:39;;;;;;;3.78;1.52;;;24.60;24.70;;;;;;7400275;19;19934;-73
2023/09/22 10:24:29;;;;;;;4.70;1.83;;;24.60;24.80;;;;;;7402914;19;19982;-72
2023/09/22 10:27:03;;;;;;;3.97;1.35;;;25.00;24.00;;;;;;7399747;19;20353;-73
2023/09/22 10:29:37;;;;;;;4.80;1.80;;;25.10;23.20;;;;;;7403015;19;19924;-72
2023/09/22 10:34:55;;;;;;;2.90;1.50;;;24.90;22.80;;;;;;7411576;19;20327;-72
2023/09/22 10:37:22;;;;;;;3.35;1.80;;;24.30;23.30;;;;;;7406979;19;19914;-72
2023/09/22 10:39:53;;;;;;;4.00;1.50;;;25.00;23.10;;;;;;7410453;19;19940;-72
2023/09/22 10:42:20;;;;;;;3.13;1.92;;;25.10;22.30;;;;;;7408769;19;19915;-72
2023/09/22 10:44:59;;;;;;;4.35;2.08;;;25.10;22.20;;;;;;7404735;19;19918;-72
2023/09/22 10:47:37;;;;;;;3.97;1.58;;;25.00;22.30;;;;;;7406943;19;19918;-73
2023/09/22 10:50:13;;;;;;;2.90;2.00;;;25.70;21.70;;;;;;7404687;19;19951;-72
2023/09/22 10:52:41;;;;;;;3.72;2.05;;;25.90;21.40;;;;;;7409978;19;19918;-73
2023/09/22 10:55:09;;;;;;;3.60;1.58;;;26.30;20.30;;;;;;7407493;19;19995;-72
2023/09/22 10:57:36;;;;;;;5.70;2.40;;;26.10;21.20;;;;;;7409246;19;19942;-73
2023/09/22 11:00:10;;;;;;;3.85;2.03;;;26.20;21.60;;;;;;7407069;19;20374;-73
2023/09/22 11:02:36;;;;;;;4.15;2.28;;;26.10;20.50;;;;;;7407552;19;19923;-72
2023/09/22 11:05:05;;;;;;;4.45;2.10;;;26.50;20.70;;;;;;7406834;19;19986;-73
2023/09/22 11:07:32;;;;;;;5.93;2.30;;;27.00;20.10;;;;;;7401607;19;19931;-72
2023/09/22 11:10:00;;;;;;;4.47;2.38;;;26.50;19.50;;;;;;7407467;19;19926;-76
2023/09/22 11:12:29;;;;;;;4.75;2.45;;;26.60;20.40;;;;;;7400995;19;19922;-72
2023/09/22 11:15:00;;;;;;;3.80;1.95;;;26.80;20.50;;;;;;7405258;19;20208;-75
2023/09/22 11:17:41;;;;;;;4.80;2.40;;;26.20;20.00;;;;;;7402588;19;19926;-72
2023/09/22 11:20:21;;;;;;;6.38;2.60;;;27.50;19.30;;;;;;7395967;19;19910;-73
2023/09/22 11:22:47;;;;;;;6.18;2.30;;;27.70;19.10;;;;;;7395902;19;19918;-72
2023/09/22 11:25:14;;;;;;;5.07;2.45;;;26.90;19.30;;;;;;7405316;19;20422;-73
2023/09/22 11:27:45;;;;;;;3.80;2.17;;;27.50;19.60;;;;;;7400358;19;19919;-72
2023/09/22 11:30:25;;;;;;;4.15;2.95;;;27.90;18.10;;;;;;7404599;19;20350;-73
2023/09/22 11:32:50;;;;;;;4.20;2.80;;;27.90;17.70;;;;;;7406192;19;19918;-72
2023/09/22 11:35:39;;;;;;;5.10;1.90;;;28.80;17.10;;;;;;7400784;19;19911;-73
2023/09/22 11:38:26;;;;;;;3.70;2.38;;;27.40;17.60;;;;;;7394139;19;19922;-72
2023/09/22 11:41:10;;;;;;;5.82;2.53;;;28.60;16.80;;;;;;7396199;19;19923;-73
2023/09/22 11:43:41;;;;;;;4.25;2.65;;;29.80;16.10;;;;;;7403194;19;20335;-72
2023/09/22 11:46:10;;;;;;;4.03;2.38;;;29.30;14.70;;;;;;7393276;19;19911;-72
2023/09/22 11:48:56;;;;;;;5.28;3.00;;;29.90;15.20;;;;;;7401098;19;19918;-73
2023/09/22 11:51:37;;;;;;;4.32;2.13;;;30.10;14.00;;;;;;7395535;19;24400;-72
2023/09/22 11:54:04;;;;;;;4.05;2.47;;;29.30;14.20;;;;;;7401835;19;19909;-72
2023/09/22 11:56:30;;;;;;;4.13;2.33;;;28.80;14.60;;;;;;7401140;19;20283;-72
2023/09/22 11:59:05;;;;;;;;;;;28.30;12.90;;;;;;7398389;19;19914;-72
2023/09/22 12:01:31;;;;;;;3.95;2.67;;;28.10;13.50;;;;;;7397054;19;19925;-72
2023/09/22 12:03:58;;;;;;;6.28;2.70;;;28.10;12.20;;;;;;7402399;19;19914;-73
2023/09/22 12:06:24;;;;;;;6.45;3.20;;;28.40;13.10;;;;;;7393653;19;19982;-73
2023/09/22 12:08:50;;;;;;;3.53;2.35;;;28.60;13.20;;;;;;7404276;19;19927;-73
2023/09/22 12:11:16;;;;;;;4.03;2.58;;;28.60;13.00;;;;;;7397995;19;20286;-73
2023/09/22 12:13:43;;;;;;;;;;;28.80;13.10;;;;;;7395070;19;19910;-72
2023/09/22 12:16:09;;;;;;;5.30;3.10;;;29.60;12.50;;;;;;7367734;19;19918;-72
2023/09/22 12:18:34;;;;;;;;;;;28.90;12.00;;;;;;7402698;19;19915;-75
2023/09/22 12:21:00;;;;;;;4.43;2.83;;;29.20;13.00;;;;;;7395107;19;20344;-73
2023/09/22 12:23:26;;;;;;;4.53;2.90;;;28.50;12.40;;;;;;7387411;19;19911;-73
2023/09/22 12:25:52;;;;;;;5.95;2.97;;;29.30;12.00;;;;;;7394686;19;19922;-73
2023/09/22 12:28:18;;;;;;;4.22;2.63;;;28.80;12.30;;;;;;7395702;19;19926;-72
2023/09/22 12:30:44;;;;;;;3.80;2.85;;;28.90;11.90;;;;;;7402316;19;19978;-73
2023/09/22 12:33:11;;;;;;;4.00;3.50;;;28.80;11.60;;;;;;7398227;19;19922;-73
2023/09/22 12:35:41;;;;;;;4.30;3.08;;;30.20;11.20;;;;;;7397502;19;19915;-73
2023/09/22 12:38:07;;;;;;;7.07;3.22;;;30.60;10.30;;;;;;7393102;19;19915;-71
2023/09/22 12:40:33;;;;;;;4.45;2.80;;;31.00;10.20;;;;;;7402516;19;19915;-73
2023/09/22 12:42:59;;;;;;;4.10;3.08;;;30.50;9.90;;;;;;7400749;19;19921;-72
2023/09/22 12:45:25;;;;;;;3.83;3.33;;;30.40;10.00;;;;;;7391638;19;19925;-73
2023/09/22 12:47:52;;;;;;;3.88;3.10;;;30.60;10.00;;;;;;7397588;19;19918;-73
2023/09/22 12:50:18;;;;;;;4.80;4.10;;;30.60;9.50;;;;;;7391296;19;19986;-73
2023/09/22 12:52:44;;;;;;;4.18;2.80;;;30.80;9.60;;;;;;7399017;19;19966;-74
2023/09/22 12:55:10;;;;;;;4.93;3.05;;;29.60;10.10;;;;;;7400502;19;19919;-72
2023/09/22 12:57:37;;;;;;;5.20;2.83;;;29.10;10.40;;;;;;7397831;19;19926;-72